Time;durP1;ratioP1;P1;durP2;ratioP2;P2;SDS_P1;SDS_P2;PMS_P1;PMS_P2;Temp;Humidity;BMP_temperature;BMP_pressure;BME280_temperature;BME280_humidity;BME280_pressure;Samples;Min_cycle;Max_cycle;Signal;HPM_P1;HPM_P2
2021/10/25 00:00:02;;;;;;;10.63;3.40;;;12.90;78.30;;;;;;4985998;28;20129;-80
2021/10/25 00:02:38;;;;;;;5.80;2.53;;;12.80;78.10;;;;;;4987185;28;20130;-80
2021/10/25 00:05:05;;;;;;;7.75;2.15;;;12.80;78.20;;;;;;5001970;28;20027;-79
2021/10/25 00:07:32;;;;;;;6.57;1.85;;;12.80;78.20;;;;;;4987115;28;20412;-81
2021/10/25 00:09:59;;;;;;;5.93;2.60;;;12.80;78.30;;;;;;5001479;28;20426;-80
2021/10/25 00:12:25;;;;;;;10.75;2.42;;;12.80;78.40;;;;;;4984744;28;20517;-80
2021/10/25 00:14:54;;;;;;;8.65;2.13;;;12.80;78.40;;;;;;5001480;28;20033;-81
2021/10/25 00:17:20;;;;;;;8.13;2.17;;;12.80;78.40;;;;;;4999997;28;20325;-82
2021/10/25 00:19:46;;;;;;;5.38;1.77;;;12.80;78.40;;;;;;4990984;28;20031;-83
2021/10/25 00:22:12;;;;;;;5.10;2.08;;;12.70;78.30;;;;;;4986408;28;20046;-81
2021/10/25 00:24:38;;;;;;;6.40;2.47;;;12.70;78.40;;;;;;4985966;28;20027;-82
2021/10/25 00:27:04;;;;;;;3.80;1.70;;;12.70;78.40;;;;;;4986359;28;20117;-82
2021/10/25 00:29:30;;;;;;;6.20;2.05;;;12.70;78.50;;;;;;4997569;28;20046;-82
2021/10/25 00:31:56;;;;;;;5.28;1.90;;;12.70;78.50;;;;;;5005928;28;20026;-83
2021/10/25 00:34:23;;;;;;;7.55;2.55;;;12.70;78.50;;;;;;4991917;28;20595;-83
2021/10/25 00:36:50;;;;;;;7.03;1.80;;;12.70;78.60;;;;;;4986075;28;20026;-80
2021/10/25 00:39:16;;;;;;;7.22;2.67;;;12.70;78.60;;;;;;4986252;28;20031;-82
2021/10/25 00:41:42;;;;;;;6.35;1.90;;;12.60;78.50;;;;;;4986530;28;20133;-80
2021/10/25 00:44:08;;;;;;;5.95;2.50;;;12.60;78.50;;;;;;4988667;28;20121;-83
2021/10/25 00:46:34;;;;;;;4.55;1.92;;;12.60;78.50;;;;;;4994942;28;20133;-83
2021/10/25 00:49:00;;;;;;;7.95;1.90;;;12.60;78.60;;;;;;5000895;28;20051;-82
2021/10/25 00:51:27;;;;;;;5.90;2.15;;;12.60;78.60;;;;;;4990505;28;20411;-83
2021/10/25 00:53:54;;;;;;;7.28;2.08;;;12.60;78.60;;;;;;4989417;28;20038;-82
2021/10/25 00:56:20;;;;;;;6.22;2.65;;;12.60;78.60;;;;;;4989457;28;20502;-80
2021/10/25 00:58:46;;;;;;;6.85;2.10;;;12.50;78.40;;;;;;4972135;28;20533;-84
2021/10/25 01:01:13;;;;;;;5.13;1.83;;;12.50;78.50;;;;;;4972637;28;20041;-83
2021/10/25 01:03:39;;;;;;;4.78;1.80;;;12.60;78.60;;;;;;4987892;28;20042;-84
2021/10/25 01:06:07;;;;;;;5.95;2.33;;;12.50;78.50;;;;;;4990157;28;20061;-84
2021/10/25 01:08:39;;;;;;;7.70;2.03;;;12.40;78.30;;;;;;4993084;28;20033;-84
2021/10/25 01:11:06;;;;;;;7.65;2.42;;;12.50;78.50;;;;;;5009408;28;20034;-83
2021/10/25 01:13:33;;;;;;;4.40;1.75;;;12.40;78.30;;;;;;4984229;28;20027;-82
2021/10/25 01:15:59;;;;;;;8.98;2.50;;;12.50;78.50;;;;;;4989873;28;20498;-84
2021/10/25 01:18:25;;;;;;;6.75;2.45;;;12.40;78.40;;;;;;5008062;28;20041;-83
2021/10/25 01:20:51;;;;;;;8.63;1.77;;;12.40;78.40;;;;;;5009308;28;20034;-82
2021/10/25 01:23:22;;;;;;;8.10;2.45;;;12.40;78.50;;;;;;5002217;28;20105;-82
2021/10/25 01:25:50;;;;;;;8.57;2.13;;;12.40;78.50;;;;;;4987623;28;20034;-83
2021/10/25 01:28:17;;;;;;;7.38;2.08;;;12.40;78.60;;;;;;4989321;28;20058;-83
2021/10/25 01:30:44;;;;;;;8.38;3.45;;;12.30;78.40;;;;;;4989307;28;20090;-83
2021/10/25 01:33:12;;;;;;;5.40;2.15;;;12.30;78.50;;;;;;4992141;28;20027;-83
2021/10/25 01:35:38;;;;;;;4.90;1.90;;;12.30;78.60;;;;;;4986235;28;20038;-82
2021/10/25 01:38:05;;;;;;;6.03;2.40;;;12.30;78.60;;;;;;4988483;28;20390;-82
2021/10/25 01:40:31;;;;;;;8.77;2.17;;;12.30;78.60;;;;;;4989983;28;20134;-82
2021/10/25 01:42:59;;;;;;;8.43;2.17;;;12.30;78.70;;;;;;5005063;28;20497;-81
2021/10/25 01:45:25;;;;;;;4.95;2.63;;;12.30;78.70;;;;;;4989259;28;20030;-82
2021/10/25 01:47:51;;;;;;;5.57;1.65;;;12.30;78.80;;;;;;5015386;28;20084;-85
2021/10/25 01:50:18;;;;;;;4.97;1.70;;;12.30;78.80;;;;;;4989548;28;20030;-83
2021/10/25 01:52:44;;;;;;;5.00;1.83;;;12.30;78.80;;;;;;4990096;28;20122;-85
2021/10/25 01:55:10;;;;;;;8.93;2.40;;;12.20;78.60;;;;;;4973933;28;20150;-84
2021/10/25 01:57:37;;;;;;;4.00;1.73;;;12.20;78.70;;;;;;4973149;28;20135;-84
2021/10/25 02:00:04;;;;;;;8.52;2.08;;;12.30;78.80;;;;;;4972864;28;20497;-85
2021/10/25 02:02:44;;;;;;;6.43;1.65;;;12.20;78.70;;;;;;4972936;28;20043;-83
2021/10/25 02:05:46;;;;;;;9.02;2.60;;;12.30;78.90;;;;;;4973505;28;20031;-83
2021/10/25 02:08:13;;;;;;;3.90;1.45;;;12.20;78.70;;;;;;4973055;28;20038;-83
2021/10/25 02:10:52;;;;;;;7.13;2.00;;;12.20;78.70;;;;;;4972620;28;20027;-83
2021/10/25 02:13:19;;;;;;;8.23;2.20;;;12.20;78.70;;;;;;4972155;28;20027;-83
2021/10/25 02:15:47;;;;;;;8.25;2.85;;;12.20;78.70;;;;;;4972179;28;20035;-82
2021/10/25 02:18:16;;;;;;;7.50;2.67;;;12.20;78.70;;;;;;5011386;28;20022;-83
2021/10/25 02:20:43;;;;;;;10.55;1.95;;;12.10;78.50;;;;;;5011273;28;20045;-84
2021/10/25 02:23:13;;;;;;;8.82;3.35;;;12.10;78.60;;;;;;4995910;28;20459;-83
2021/10/25 02:25:44;;;;;;;5.40;1.80;;;12.20;78.80;;;;;;5011542;28;20116;-84
2021/10/25 02:28:15;;;;;;;6.85;1.90;;;12.10;78.70;;;;;;4995517;28;20042;-80
2021/10/25 02:30:42;;;;;;;4.68;1.70;;;12.10;78.80;;;;;;5011127;28;20045;-82
2021/10/25 02:33:08;;;;;;;5.78;2.03;;;12.10;78.80;;;;;;5027615;28;20393;-83
2021/10/25 02:35:34;;;;;;;5.13;1.70;;;12.10;78.90;;;;;;5027712;28;20026;-82
2021/10/25 02:38:01;;;;;;;6.65;1.67;;;12.20;79.10;;;;;;5027775;28;20041;-80
2021/10/25 02:40:30;;;;;;;11.65;2.13;;;12.10;79.00;;;;;;5027459;28;20041;-80
2021/10/25 02:42:59;;;;;;;5.93;2.05;;;12.10;79.10;;;;;;5011206;28;20385;-80
2021/10/25 02:45:26;;;;;;;6.25;2.47;;;12.10;79.10;;;;;;5027750;28;20113;-81
2021/10/25 02:47:53;;;;;;;8.07;2.00;;;12.10;79.10;;;;;;4993600;28;20046;-81
2021/10/25 02:50:19;;;;;;;7.88;2.15;;;12.20;79.30;;;;;;4991092;28;20049;-81
2021/10/25 02:52:46;;;;;;;5.40;1.73;;;12.20;79.30;;;;;;5007424;28;20027;-83
2021/10/25 02:55:13;;;;;;;3.88;1.52;;;12.20;79.40;;;;;;5007683;28;20039;-81
2021/10/25 02:57:42;;;;;;;3.90;1.92;;;12.20;79.60;;;;;;5007216;28;20034;-82
2021/10/25 03:00:11;;;;;;;6.03;2.25;;;12.20;79.50;;;;;;5007181;28;20030;-83
2021/10/25 03:02:37;;;;;;;7.65;1.73;;;12.20;79.50;;;;;;5007294;28;20039;-81
2021/10/25 03:05:05;;;;;;;8.95;2.20;;;12.20;79.50;;;;;;4990190;28;20081;-81
2021/10/25 03:07:31;;;;;;;7.47;2.78;;;12.20;79.60;;;;;;4991011;28;20045;-80
2021/10/25 03:09:58;;;;;;;4.35;2.03;;;12.20;79.60;;;;;;5007133;28;20446;-81
2021/10/25 03:12:24;;;;;;;9.38;3.03;;;12.20;79.60;;;;;;4990832;28;20041;-82
2021/10/25 03:14:54;;;;;;;8.00;2.10;;;12.20;79.60;;;;;;5006892;28;20033;-82
2021/10/25 03:17:21;;;;;;;6.82;2.22;;;12.30;79.80;;;;;;4994051;28;20061;-82
2021/10/25 03:20:09;;;;;;;7.47;1.98;;;12.20;79.60;;;;;;5026444;28;20030;-82
2021/10/25 03:22:36;;;;;;;9.25;3.05;;;12.30;79.80;;;;;;4993539;28;20042;-82
2021/10/25 03:25:03;;;;;;;6.88;2.28;;;12.30;79.80;;;;;;4994452;28;20637;-82
2021/10/25 03:27:30;;;;;;;8.93;2.10;;;12.30;79.90;;;;;;5026713;28;20030;-81
2021/10/25 03:29:56;;;;;;;6.53;2.75;;;12.30;79.80;;;;;;5010410;28;20036;-82
2021/10/25 03:32:23;;;;;;;8.90;3.20;;;12.30;79.90;;;;;;5011387;28;20025;-81
2021/10/25 03:34:54;;;;;;;7.45;2.70;;;12.30;79.90;;;;;;4994444;28;20030;-82
2021/10/25 03:37:20;;;;;;;10.63;2.85;;;12.30;79.90;;;;;;5011394;28;20385;-82
2021/10/25 03:39:49;;;;;;;7.30;2.65;;;12.30;79.90;;;;;;5026344;28;20022;-82
2021/10/25 03:42:29;;;;;;;7.07;2.10;;;12.30;79.90;;;;;;5009875;28;20041;-82
2021/10/25 03:45:24;;;;;;;10.50;3.88;;;12.40;80.10;;;;;;5026456;28;20474;-82
2021/10/25 03:50:20;;;;;;;7.88;1.83;;;12.40;80.10;;;;;;4989839;28;20125;-82
2021/10/25 03:53:15;;;;;;;6.60;2.28;;;12.40;80.00;;;;;;5006946;28;20069;-82
2021/10/25 04:01:01;;;;;;;7.10;2.15;;;12.40;80.00;;;;;;4990059;28;20035;-82
2021/10/25 04:28:26;;;;;;;4.93;1.50;;;12.40;79.90;;;;;;5013129;28;20084;-81
2021/10/25 04:31:01;;;;;;;9.93;2.33;;;12.30;79.70;;;;;;5029664;28;20486;-81
2021/10/25 04:33:35;;;;;;;12.50;3.42;;;12.30;79.70;;;;;;5030234;28;20393;-80
2021/10/25 04:36:25;;;;;;;9.07;2.20;;;12.30;79.70;;;;;;4994668;28;20041;-81
2021/10/25 04:38:56;;;;;;;7.70;2.30;;;12.30;79.70;;;;;;5013303;28;20066;-82
2021/10/25 04:41:22;;;;;;;14.52;4.15;;;12.30;79.70;;;;;;5012967;28;20061;-82
2021/10/25 04:43:48;;;;;;;9.27;2.00;;;12.30;79.70;;;;;;5014230;28;20494;-81
2021/10/25 04:46:14;;;;;;;5.93;2.17;;;12.30;79.70;;;;;;5010327;28;20041;-80
2021/10/25 04:48:41;;;;;;;10.15;1.88;;;12.30;79.80;;;;;;4968844;28;20553;-80
2021/10/25 04:51:09;;;;;;;9.25;1.73;;;12.30;79.70;;;;;;4970900;28;20097;-81
2021/10/25 04:53:58;;;;;;;7.45;1.63;;;12.30;79.70;;;;;;4971453;28;20074;-82
2021/10/25 04:56:30;;;;;;;5.88;1.50;;;12.30;79.70;;;;;;5002045;28;20034;-83
2021/10/25 04:58:57;;;;;;;5.53;2.03;;;12.20;79.50;;;;;;4998041;28;20042;-82
2021/10/25 05:01:23;;;;;;;8.05;2.00;;;12.20;79.50;;;;;;4975209;28;20050;-84
2021/10/25 05:03:50;;;;;;;8.38;2.25;;;12.20;79.50;;;;;;4976437;28;20237;-84
2021/10/25 05:06:18;;;;;;;6.35;1.88;;;12.20;79.50;;;;;;4974420;28;20030;-82
2021/10/25 05:08:48;;;;;;;9.98;2.17;;;12.20;79.50;;;;;;4999360;28;20046;-82
2021/10/25 05:11:16;;;;;;;8.70;1.92;;;12.20;79.60;;;;;;4989507;28;20030;-81
2021/10/25 05:13:45;;;;;;;4.57;1.60;;;12.10;79.40;;;;;;4989118;28;20031;-81
2021/10/25 05:16:11;;;;;;;6.47;1.60;;;12.10;79.40;;;;;;5009016;28;20065;-80
2021/10/25 05:18:45;;;;;;;4.20;1.70;;;12.10;79.40;;;;;;4995242;28;20410;-81
2021/10/25 05:21:11;;;;;;;7.85;1.98;;;12.10;79.50;;;;;;5004662;28;20419;-83
2021/10/25 05:23:37;;;;;;;5.45;1.60;;;12.10;79.50;;;;;;4988042;28;20450;-82
2021/10/25 05:26:05;;;;;;;9.45;1.83;;;12.10;79.50;;;;;;4987899;28;20030;-82
2021/10/25 05:28:31;;;;;;;5.43;1.63;;;12.10;79.60;;;;;;5004143;28;20038;-83
2021/10/25 05:30:57;;;;;;;5.97;2.42;;;12.00;79.40;;;;;;5004671;28;20138;-80
2021/10/25 05:33:30;;;;;;;6.43;1.67;;;12.00;79.40;;;;;;5004606;28;20034;-82
2021/10/25 05:35:56;;;;;;;7.75;1.70;;;12.00;79.50;;;;;;4971708;28;20034;-83
2021/10/25 05:38:22;;;;;;;4.20;1.63;;;12.00;79.40;;;;;;4980567;28;20477;-81
2021/10/25 05:40:48;;;;;;;4.60;1.80;;;12.10;79.60;;;;;;5023798;28;20030;-82
2021/10/25 05:43:16;;;;;;;9.68;2.22;;;12.00;79.50;;;;;;4996031;28;20478;-83
2021/10/25 05:45:42;;;;;;;6.70;2.00;;;12.00;79.50;;;;;;5004411;28;20041;-81
2021/10/25 05:48:08;;;;;;;6.40;1.70;;;12.00;79.50;;;;;;4998650;28;20054;-81
2021/10/25 05:50:36;;;;;;;6.68;2.20;;;12.00;79.50;;;;;;4967272;28;20035;-80
2021/10/25 05:53:03;;;;;;;6.13;2.08;;;12.00;79.50;;;;;;4997669;28;20030;-82
2021/10/25 05:55:31;;;;;;;4.55;1.60;;;11.90;79.30;;;;;;4987553;28;20371;-81
2021/10/25 05:57:57;;;;;;;6.60;2.85;;;12.00;79.40;;;;;;4969679;28;20027;-84
2021/10/25 06:00:37;;;;;;;8.15;1.77;;;11.90;79.30;;;;;;4989785;28;20073;-82
2021/10/25 06:03:06;;;;;;;9.18;2.00;;;11.90;79.30;;;;;;4991875;28;20065;-83
2021/10/25 06:05:32;;;;;;;5.75;1.55;;;11.90;79.30;;;;;;5008648;28;20026;-80
2021/10/25 06:08:00;;;;;;;7.07;1.92;;;11.90;79.30;;;;;;5003077;28;20030;-80
2021/10/25 06:10:29;;;;;;;6.88;1.65;;;11.90;79.30;;;;;;4987697;28;20026;-83
2021/10/25 06:12:59;;;;;;;8.50;1.95;;;11.80;79.10;;;;;;4988041;28;20038;-82
2021/10/25 06:15:44;;;;;;;6.00;2.03;;;11.80;79.10;;;;;;4987913;28;20038;-82
2021/10/25 06:18:10;;;;;;;6.30;1.95;;;11.80;79.10;;;;;;4995949;28;20418;-83
2021/10/25 06:20:39;;;;;;;5.28;1.80;;;11.80;79.10;;;;;;4990259;28;20029;-86
2021/10/25 06:23:13;;;;;;;4.95;1.52;;;11.80;79.10;;;;;;5003457;28;20034;-83
2021/10/25 06:25:44;;;;;;;8.02;2.00;;;11.80;79.10;;;;;;5004171;28;20038;-83
2021/10/25 06:28:14;;;;;;;10.18;2.42;;;11.70;79.50;;;;;;5004075;28;20084;-79
2021/10/25 06:31:01;;;;;;;6.75;1.88;;;11.70;79.00;;;;;;5003875;28;20265;-83
2021/10/25 06:33:47;;;;;;;8.20;1.75;;;11.70;79.00;;;;;;4996761;28;20030;-80
2021/10/25 06:36:47;;;;;;;4.40;1.50;;;11.60;78.80;;;;;;4975533;28;20042;-83
2021/10/25 06:42:16;;;;;;;5.80;1.70;;;11.60;78.80;;;;;;4986572;28;20170;-79
2021/10/25 06:44:54;;;;;;;8.35;2.05;;;11.60;78.80;;;;;;4999282;28;20026;-79
2021/10/25 06:47:24;;;;;;;6.75;1.80;;;11.60;78.80;;;;;;4986761;28;20030;-80
2021/10/25 06:49:52;;;;;;;6.60;1.77;;;11.60;78.90;;;;;;4985422;28;20559;-81
2021/10/25 06:52:18;;;;;;;5.63;1.67;;;11.60;78.90;;;;;;4986146;28;20045;-82
2021/10/25 06:54:45;;;;;;;7.55;2.08;;;11.60;79.00;;;;;;4987164;28;20034;-83
2021/10/25 06:57:12;;;;;;;6.30;2.70;;;11.60;79.10;;;;;;5003376;28;20462;-84
2021/10/25 06:59:42;;;;;;;4.82;1.50;;;11.60;79.20;;;;;;5004053;28;20080;-85
2021/10/25 07:02:12;;;;;;;9.85;1.92;;;11.60;79.20;;;;;;4988008;28;20401;-85
2021/10/25 07:04:39;;;;;;;7.70;2.63;;;11.60;79.40;;;;;;4988539;28;20026;-88
2021/10/25 07:07:06;;;;;;;3.75;1.40;;;11.60;79.40;;;;;;5005865;28;20030;-82
2021/10/25 07:09:33;;;;;;;7.55;1.77;;;11.70;79.70;;;;;;5006059;28;20029;-82
2021/10/25 07:11:59;;;;;;;7.70;2.95;;;11.70;79.80;;;;;;5007893;28;20061;-85
2021/10/25 07:14:30;;;;;;;5.75;1.88;;;11.70;79.80;;;;;;4972059;28;20048;-82
2021/10/25 08:07:28;;;;;;;4.75;1.35;;;13.20;81.00;;;;;;4969095;28;20038;-79
2021/10/25 08:10:16;;;;;;;4.47;1.48;;;13.30;81.00;;;;;;4990831;28;20034;-80
2021/10/25 08:12:52;;;;;;;6.70;2.50;;;13.50;81.10;;;;;;4991281;28;20027;-80
2021/10/25 08:15:28;;;;;;;6.60;1.77;;;13.50;80.90;;;;;;4989017;28;20034;-78
2021/10/25 08:17:59;;;;;;;7.53;1.83;;;13.50;80.80;;;;;;5006008;28;20110;-78
2021/10/25 08:20:25;;;;;;;4.93;1.55;;;13.60;80.90;;;;;;5025041;28;20040;-79
2021/10/25 08:22:51;;;;;;;5.55;1.60;;;13.60;80.80;;;;;;5001184;28;20139;-78
2021/10/25 08:25:19;;;;;;;11.85;2.83;;;13.60;80.70;;;;;;5005233;28;20034;-79
2021/10/25 08:27:54;;;;;;;6.07;1.50;;;13.60;80.70;;;;;;4987606;28;20101;-79
2021/10/25 08:30:21;;;;;;;8.98;2.17;;;13.60;80.60;;;;;;4989123;28;20031;-78
2021/10/25 08:33:05;;;;;;;5.43;2.10;;;13.70;80.80;;;;;;5005470;28;20022;-85
2021/10/25 08:41:21;;;;;;;5.78;1.70;;;13.70;80.50;;;;;;4989015;28;20026;-80
2021/10/25 08:43:50;;;;;;;7.55;1.70;;;13.80;80.70;;;;;;5019285;28;20507;-79
2021/10/25 08:46:17;;;;;;;8.45;1.88;;;13.80;80.60;;;;;;5004341;28;20041;-80
2021/10/25 08:48:46;;;;;;;7.50;2.20;;;13.90;80.80;;;;;;4980095;28;20054;-77
2021/10/25 08:51:14;;;;;;;8.80;1.98;;;14.00;80.80;;;;;;5004999;28;20030;-79
2021/10/25 08:53:40;;;;;;;4.55;1.48;;;14.00;80.80;;;;;;5008219;28;20417;-82
2021/10/25 08:56:07;;;;;;;4.53;1.40;;;14.00;80.60;;;;;;5008483;28;20041;-80
2021/10/25 08:58:50;;;;;;;4.68;1.42;;;14.10;80.70;;;;;;4996497;28;20030;-80
2021/10/25 09:01:32;;;;;;;3.92;1.50;;;14.20;80.70;;;;;;5004454;28;20044;-81
2021/10/25 09:04:12;;;;;;;5.40;1.67;;;14.20;80.60;;;;;;4988203;28;20410;-80
2021/10/25 09:06:58;;;;;;;3.50;1.23;;;14.30;80.60;;;;;;5004265;28;20096;-81
2021/10/25 09:09:29;;;;;;;6.88;1.58;;;14.30;80.50;;;;;;4990825;28;20482;-83
2021/10/25 09:12:08;;;;;;;4.55;1.30;;;14.30;80.40;;;;;;5005695;28;20038;-84
2021/10/25 09:14:45;;;;;;;7.55;2.00;;;14.30;80.30;;;;;;5005140;28;20030;-82
2021/10/25 09:17:13;;;;;;;5.13;1.38;;;14.40;80.40;;;;;;4979953;28;20030;-80
2021/10/25 09:19:51;;;;;;;4.00;1.13;;;14.40;80.40;;;;;;5007244;28;20030;-80
2021/10/25 09:22:21;;;;;;;5.00;1.38;;;14.60;80.70;;;;;;5006671;28;20030;-79
2021/10/25 09:24:57;;;;;;;4.40;1.67;;;14.70;80.70;;;;;;5006896;28;20029;-79
2021/10/25 09:27:34;;;;;;;3.72;1.25;;;14.80;80.60;;;;;;5006639;28;20033;-80
2021/10/25 09:30:18;;;;;;;4.05;1.10;;;15.00;80.70;;;;;;5023994;28;20041;-82
2021/10/25 09:32:46;;;;;;;3.53;1.30;;;15.10;80.50;;;;;;5003623;28;20038;-84
2021/10/25 09:35:42;;;;;;;3.38;1.08;;;15.20;80.40;;;;;;4975502;28;20035;-84
2021/10/25 09:49:35;;;;;;;5.10;1.23;;;15.40;79.80;;;;;;5006390;28;20124;-85
2021/10/25 09:52:04;;;;;;;6.05;1.55;;;15.50;79.90;;;;;;4991818;28;20049;-86
2021/10/25 09:54:33;;;;;;;2.63;1.00;;;15.40;79.70;;;;;;4984274;28;20038;-80
2021/10/25 09:57:04;;;;;;;5.78;2.03;;;15.40;79.60;;;;;;4969149;28;20487;-87
2021/10/25 09:59:58;;;;;;;6.88;1.67;;;15.40;79.50;;;;;;4970336;28;20039;-87
2021/10/25 10:02:46;;;;;;;3.50;1.10;;;15.40;79.40;;;;;;4987521;28;20039;-83
2021/10/25 10:05:22;;;;;;;5.25;1.48;;;15.50;79.50;;;;;;5004177;28;20037;-82
2021/10/25 10:07:52;;;;;;;;;;;15.50;79.50;;;;;;4987835;28;20076;-84
2021/10/25 10:10:26;;;;;;;3.92;0.95;;;15.40;79.30;;;;;;4987864;28;19916;-82
2021/10/25 10:13:06;;;;;;;4.43;1.13;;;15.50;79.40;;;;;;4986894;28;20038;-80
2021/10/25 10:15:40;;;;;;;4.80;1.38;;;15.50;79.40;;;;;;4987000;28;20027;-83
2021/10/25 10:18:10;;;;;;;4.28;1.05;;;15.50;79.40;;;;;;5021580;28;20420;-82
2021/10/25 10:21:07;;;;;;;4.13;1.00;;;15.50;79.40;;;;;;5005546;28;20057;-82
2021/10/25 10:23:37;;;;;;;4.22;1.30;;;15.60;79.40;;;;;;4994282;28;20046;-82
2021/10/25 10:26:10;;;;;;;5.35;1.40;;;15.70;79.40;;;;;;5003354;28;20030;-84
2021/10/25 10:28:44;;;;;;;4.03;1.17;;;15.80;79.40;;;;;;4992732;28;20033;-84
2021/10/25 10:31:17;;;;;;;3.65;0.90;;;15.90;79.40;;;;;;4987458;28;20024;-84
2021/10/25 10:33:57;;;;;;;4.07;1.00;;;16.00;79.50;;;;;;4985805;28;20441;-84
2021/10/25 10:36:33;;;;;;;7.22;1.30;;;16.10;79.50;;;;;;4982429;28;20185;-84
2021/10/25 10:39:14;;;;;;;3.58;1.48;;;16.30;79.70;;;;;;4996131;28;20481;-82
2021/10/25 10:42:05;;;;;;;4.22;1.02;;;16.50;79.60;;;;;;4996272;28;20056;-83
2021/10/25 10:44:58;;;;;;;6.68;1.60;;;16.70;79.40;;;;;;4968905;28;20489;-81
2021/10/25 10:47:25;;;;;;;2.55;1.35;;;16.80;79.10;;;;;;4993783;28;20056;-82
2021/10/25 10:49:56;;;;;;;2.13;0.73;;;16.90;79.10;;;;;;4987399;28;20085;-84
2021/10/25 10:55:20;;;;;;;6.78;1.92;;;16.80;78.50;;;;;;4985129;28;20477;-83
2021/10/25 11:00:27;;;;;;;2.15;0.60;;;16.90;78.50;;;;;;4987448;28;20489;-83
2021/10/25 11:02:58;;;;;;;2.45;1.00;;;17.00;78.40;;;;;;4988478;28;20042;-83
2021/10/25 11:05:31;;;;;;;3.70;1.10;;;16.90;78.10;;;;;;4989188;28;20394;-84
2021/10/25 11:08:08;;;;;;;2.13;0.80;;;16.90;78.00;;;;;;4987962;28;20064;-84
2021/10/25 11:10:39;;;;;;;2.28;1.17;;;16.90;78.10;;;;;;4986392;28;20026;-82
2021/10/25 11:13:15;;;;;;;14.18;1.70;;;16.80;77.90;;;;;;4985438;28;20034;-80
2021/10/25 11:15:53;;;;;;;4.50;1.58;;;16.80;77.90;;;;;;4989957;28;20031;-84
2021/10/25 11:18:28;;;;;;;3.72;0.98;;;16.70;77.80;;;;;;4974879;28;20384;-84
2021/10/25 11:21:16;;;;;;;3.35;0.90;;;16.70;78.00;;;;;;4988390;28;20117;-82
2021/10/25 11:24:03;;;;;;;4.82;1.15;;;16.70;78.00;;;;;;5000642;28;20034;-84
2021/10/25 11:26:48;;;;;;;2.42;0.90;;;16.70;78.10;;;;;;5006934;28;20467;-85
2021/10/25 11:29:20;;;;;;;3.75;0.88;;;16.80;78.20;;;;;;5008633;28;20038;-81
2021/10/25 11:31:49;;;;;;;2.33;0.77;;;16.90;78.30;;;;;;4987530;28;20033;-81
2021/10/25 11:34:24;;;;;;;1.23;0.60;;;17.00;78.20;;;;;;4986899;28;20030;-81
2021/10/25 11:37:00;;;;;;;2.00;0.70;;;17.10;78.10;;;;;;4986340;28;20367;-82
2021/10/25 11:39:28;;;;;;;1.55;0.70;;;17.20;78.10;;;;;;5018053;28;20571;-81
2021/10/25 11:41:54;;;;;;;2.45;0.70;;;17.30;78.10;;;;;;5006765;28;20184;-82
2021/10/25 11:44:20;;;;;;;2.72;0.73;;;17.40;78.10;;;;;;5003172;28;20486;-82
2021/10/25 11:46:46;;;;;;;2.78;0.77;;;17.30;77.70;;;;;;4994671;28;20022;-82
2021/10/25 11:49:20;;;;;;;1.25;0.57;;;17.40;77.70;;;;;;5005864;28;20045;-83
2021/10/25 11:51:51;;;;;;;3.50;0.82;;;17.30;77.30;;;;;;5005451;28;20049;-83
2021/10/25 11:54:17;;;;;;;2.05;0.50;;;17.30;77.30;;;;;;4991397;28;20039;-81
2021/10/25 11:56:49;;;;;;;1.80;1.08;;;17.30;77.30;;;;;;4968008;28;20031;-79
2021/10/25 11:59:16;;;;;;;2.35;0.70;;;17.20;77.10;;;;;;4981484;28;20133;-82
2021/10/25 12:01:43;;;;;;;2.53;0.82;;;17.20;77.20;;;;;;4986796;28;20026;-79
2021/10/25 12:04:10;;;;;;;3.38;1.20;;;17.20;77.20;;;;;;5001463;28;20034;-79
2021/10/25 12:06:36;;;;;;;2.83;0.70;;;17.20;77.20;;;;;;4987340;28;20042;-80
2021/10/25 12:09:06;;;;;;;3.05;0.80;;;17.30;77.30;;;;;;4999446;28;20145;-81
2021/10/25 12:11:40;;;;;;;4.30;0.73;;;17.40;77.30;;;;;;5021978;28;20046;-81
2021/10/25 12:14:07;;;;;;;2.42;1.00;;;17.50;77.30;;;;;;4991360;28;20030;-81
2021/10/25 12:16:33;;;;;;;2.05;0.50;;;17.60;77.30;;;;;;4993650;28;20030;-79
2021/10/25 12:18:59;;;;;;;6.93;1.63;;;17.60;77.00;;;;;;5017372;28;20152;-81
2021/10/25 12:21:35;;;;;;;2.67;0.82;;;17.60;76.90;;;;;;5007057;28;20034;-79
2021/10/25 12:24:07;;;;;;;2.83;0.82;;;17.60;76.70;;;;;;4990527;28;20367;-80
2021/10/25 12:26:33;;;;;;;3.20;0.75;;;17.70;76.90;;;;;;4986852;28;20045;-80
2021/10/25 12:28:59;;;;;;;3.97;1.05;;;17.70;76.80;;;;;;4986218;28;20481;-81
2021/10/25 12:31:27;;;;;;;3.90;1.08;;;17.70;76.70;;;;;;4987576;28;20493;-78
2021/10/25 12:34:04;;;;;;;1.90;0.60;;;17.70;76.70;;;;;;4987668;28;20104;-85
2021/10/25 12:36:36;;;;;;;3.75;1.02;;;17.60;76.50;;;;;;4987681;28;20032;-82
2021/10/25 12:39:10;;;;;;;1.95;0.90;;;17.60;76.60;;;;;;4978185;28;20030;-81
2021/10/25 12:41:55;;;;;;;3.08;1.10;;;17.70;76.70;;;;;;4976379;28;20121;-82
2021/10/25 12:44:26;;;;;;;1.90;0.57;;;17.60;76.50;;;;;;4987447;28;20141;-80
2021/10/25 12:47:04;;;;;;;3.67;1.23;;;17.60;76.60;;;;;;4999120;28;20546;-82
2021/10/25 12:49:30;;;;;;;3.15;0.70;;;17.60;76.60;;;;;;4994602;28;20058;-83
2021/10/25 12:52:13;;;;;;;2.10;0.52;;;17.50;76.40;;;;;;4990578;28;20092;-84
2021/10/25 12:54:40;;;;;;;2.35;0.60;;;17.50;76.50;;;;;;4970528;28;20479;-82
2021/10/25 12:57:21;;;;;;;3.17;0.85;;;17.50;76.50;;;;;;4970132;28;20034;-82
2021/10/25 13:00:09;;;;;;;4.45;1.10;;;17.50;76.50;;;;;;5006371;28;20445;-81
2021/10/25 13:02:46;;;;;;;8.20;1.88;;;17.50;76.60;;;;;;5006203;28;20093;-82
2021/10/25 13:05:16;;;;;;;4.97;1.00;;;17.50;76.60;;;;;;4988388;28;20080;-80
2021/10/25 13:07:58;;;;;;;2.80;1.05;;;17.50;76.60;;;;;;4990488;28;20026;-81
2021/10/25 13:10:30;;;;;;;3.63;0.75;;;17.50;76.50;;;;;;5009682;28;20064;-81
2021/10/25 13:12:58;;;;;;;3.50;0.80;;;17.50;76.50;;;;;;5009450;28;20454;-81
2021/10/25 13:15:25;;;;;;;4.20;0.85;;;17.50;76.50;;;;;;5009252;28;20033;-80
2021/10/25 13:17:52;;;;;;;4.47;1.55;;;17.50;76.50;;;;;;4993080;28;20024;-79
2021/10/25 13:20:21;;;;;;;3.10;0.70;;;17.60;76.60;;;;;;4990501;28;20026;-80
2021/10/25 13:22:50;;;;;;;4.03;1.08;;;17.60;76.60;;;;;;5004283;28;20049;-78
2021/10/25 13:25:17;;;;;;;7.88;1.08;;;17.60;76.50;;;;;;4990705;28;20536;-79
2021/10/25 13:27:44;;;;;;;4.38;1.20;;;17.60;76.40;;;;;;4989533;28;20040;-81
2021/10/25 13:30:13;;;;;;;3.00;0.90;;;17.60;76.30;;;;;;4989429;28;20501;-80
2021/10/25 13:32:40;;;;;;;4.70;1.08;;;17.70;76.40;;;;;;4988836;28;20030;-80
2021/10/25 13:35:07;;;;;;;5.28;0.80;;;17.70;76.40;;;;;;4989142;28;20393;-79
2021/10/25 13:37:33;;;;;;;4.07;0.90;;;17.70;76.40;;;;;;4987994;28;20562;-79
2021/10/25 13:39:59;;;;;;;4.75;1.10;;;17.70;76.30;;;;;;4984959;28;20034;-80
2021/10/25 13:42:25;;;;;;;5.78;1.25;;;17.70;76.20;;;;;;4971245;28;20317;-79
2021/10/25 13:44:51;;;;;;;7.90;1.73;;;17.70;76.20;;;;;;4989150;28;20458;-79
2021/10/25 13:47:18;;;;;;;6.32;1.40;;;17.70;76.20;;;;;;5000654;28;20038;-79
2021/10/25 13:49:45;;;;;;;3.03;1.33;;;17.80;76.30;;;;;;4990248;28;20051;-80
2021/10/25 13:52:11;;;;;;;6.43;2.08;;;17.80;76.30;;;;;;4989007;28;20026;-81
2021/10/25 13:54:38;;;;;;;6.57;1.42;;;17.80;76.20;;;;;;4989083;28;20092;-80
2021/10/25 13:57:08;;;;;;;4.30;1.13;;;17.90;76.30;;;;;;4989062;28;20038;-78
2021/10/25 13:59:35;;;;;;;6.45;2.60;;;17.90;76.20;;;;;;4989256;28;20482;-78
2021/10/25 14:02:09;;;;;;;5.43;1.63;;;18.00;76.10;;;;;;4984304;28;20026;-80
2021/10/25 14:04:45;;;;;;;2.55;1.33;;;18.00;75.80;;;;;;4988542;28;20484;-80
2021/10/25 14:07:16;;;;;;;4.00;1.15;;;18.10;76.00;;;;;;4989624;28;20449;-81
2021/10/25 14:09:44;;;;;;;4.85;1.00;;;18.10;75.60;;;;;;4990630;28;20040;-81
2021/10/25 14:12:10;;;;;;;3.90;1.20;;;18.10;75.50;;;;;;4988319;28;20478;-79
2021/10/25 14:14:37;;;;;;;4.28;1.02;;;18.10;75.40;;;;;;4989416;28;20030;-80
2021/10/25 14:17:03;;;;;;;5.85;1.48;;;18.10;75.40;;;;;;5014847;28;20145;-79
2021/10/25 14:19:29;;;;;;;4.32;2.38;;;18.10;75.30;;;;;;4990328;28;20511;-79
2021/10/25 14:22:00;;;;;;;3.40;1.10;;;18.00;75.00;;;;;;4987245;28;20058;-79
2021/10/25 14:24:26;;;;;;;5.13;1.00;;;18.10;75.00;;;;;;4988131;28;20077;-79
2021/10/25 14:26:52;;;;;;;6.78;1.42;;;18.00;74.80;;;;;;4987023;28;20508;-79
2021/10/25 14:29:18;;;;;;;3.75;1.20;;;18.00;74.80;;;;;;5002072;28;20041;-79
2021/10/25 14:31:47;;;;;;;6.40;1.40;;;17.90;74.70;;;;;;5007830;28;20065;-80
2021/10/25 14:34:14;;;;;;;4.65;1.20;;;17.90;75.20;;;;;;5007855;28;20481;-78
2021/10/25 14:36:43;;;;;;;5.28;1.92;;;17.90;74.70;;;;;;5007904;28;20037;-79
2021/10/25 14:55:17;;;;;;;3.45;1.27;;;17.60;74.30;;;;;;4986387;28;20038;-80
2021/10/25 14:57:43;;;;;;;2.53;1.38;;;17.60;74.30;;;;;;4988544;28;20394;-81
2021/10/25 15:00:09;;;;;;;5.53;1.48;;;17.50;74.20;;;;;;5000581;28;20034;-80
2021/10/25 15:02:37;;;;;;;7.00;1.20;;;17.50;74.30;;;;;;4987896;28;20038;-80
2021/10/25 15:05:11;;;;;;;4.53;1.50;;;17.50;74.30;;;;;;4988615;28;20080;-79
2021/10/25 15:07:42;;;;;;;7.80;1.42;;;17.50;74.30;;;;;;4987610;28;20038;-79